Terminal Aerodrome Forecast
Issued by NWS Buffalo, NY

Home | Current Version | Previous Version | Text Only | Print | Product List | Glossary On
Versions: 1 2 3 4 5 6 7 8 9 10 11 12 13 14 15 16 17 18 19 20 21 22 23
000
FTUS41 KBUF 301130
TAFROC
TAF
KROC 301130Z 3012/0112 VRB04KT P6SM FEW050
     FM301500 06006KT P6SM FEW040
     FM301900 04010KT P6SM SCT050 BKN200
     FM010100 07006KT P6SM BKN035
     FM010700 11005KT P6SM -RA OVC035
     FM010900 12006KT 4SM RA OVC030=

USA.gov is the U.S. government's official web portal to all federal, state and local government web resources and services.